Time;durP1;ratioP1;P1;durP2;ratioP2;P2;SDS_P1;SDS_P2;PMS_P1;PMS_P2;Temp;Humidity;BMP_temperature;BMP_pressure;BME280_temperature;BME280_humidity;BME280_pressure;Samples;Min_cycle;Max_cycle;Signal;HPM_P1;HPM_P2
2021/06/04 00:00:06;;;;;;;;;;;20.30;62.10;;;;;;5076889;22;2086;-68
2021/06/04 00:02:32;;;;;;;;;;;20.20;62.00;;;;;;5049628;28;1683;-64
2021/06/04 00:04:57;;;;;;;;;;;20.30;62.10;;;;;;5054188;28;1146;-65
2021/06/04 00:07:22;;;;;;;;;;;20.20;62.00;;;;;;5053996;28;1998;-64
2021/06/04 00:09:48;;;;;;;;;;;20.20;62.00;;;;;;5054741;28;1765;-65
2021/06/04 00:12:13;;;;;;;;;;;20.30;62.10;;;;;;5055102;28;1339;-65
2021/06/04 00:14:40;;;;;;;;;;;20.20;62.00;;;;;;5049058;28;1142;-65
2021/06/04 00:17:06;;;;;;;;;;;20.20;62.10;;;;;;5046650;28;1061;-65
2021/06/04 00:19:32;;;;;;;;;;;20.20;62.10;;;;;;5054244;28;1135;-65
2021/06/04 00:22:04;;;;;;;;;;;20.20;62.00;;;;;;5054351;28;1196;-64
2021/06/04 00:24:29;;;;;;;;;;;20.20;62.10;;;;;;5053644;28;1060;-65
2021/06/04 00:26:54;;;;;;;;;;;20.20;62.10;;;;;;5053331;28;2082;-65
2021/06/04 00:29:20;;;;;;;;;;;20.20;62.10;;;;;;5053802;28;1150;-65
2021/06/04 00:31:46;;;;;;;;;;;20.20;62.10;;;;;;5053774;28;1295;-64
2021/06/04 00:34:13;;;;;;;;;;;20.20;62.10;;;;;;5052993;28;1127;-64
2021/06/04 00:36:39;;;;;;;;;;;20.30;62.20;;;;;;5054683;28;1004;-65
2021/06/04 00:39:05;;;;;;;;;;;20.20;62.10;;;;;;5054819;28;1134;-64
2021/06/04 00:41:35;;;;;;;;;;;20.20;62.20;;;;;;5053410;28;1219;-66
2021/06/04 00:44:00;;;;;;;;;;;20.20;62.10;;;;;;5052664;28;1072;-64
2021/06/04 00:46:26;;;;;;;;;;;20.20;62.10;;;;;;5053251;28;1064;-64
2021/06/04 00:48:51;;;;;;;;;;;20.20;62.20;;;;;;5054066;28;1902;-66
2021/06/04 00:51:18;;;;;;;;;;;20.20;62.20;;;;;;5053400;28;1269;-64
2021/06/04 00:53:43;;;;;;;;;;;20.20;62.20;;;;;;5052284;28;1075;-66
2021/06/04 00:56:09;;;;;;;;;;;20.20;62.20;;;;;;5053209;28;1087;-64
2021/06/04 00:58:35;;;;;;;;;;;20.20;62.20;;;;;;5053131;28;1135;-64
2021/06/04 01:01:01;;;;;;;;;;;20.20;62.20;;;;;;5053055;28;1253;-64
2021/06/04 01:03:27;;;;;;;;;;;20.20;62.20;;;;;;5052391;28;1158;-64
2021/06/04 01:05:53;;;;;;;;;;;20.20;62.20;;;;;;5052647;28;1072;-64
2021/06/04 01:08:37;;;;;;;;;;;20.20;62.20;;;;;;5053978;28;1905;-64
2021/06/04 01:11:24;;;;;;;;;;;20.20;62.30;;;;;;5054145;28;1260;-64
2021/06/04 01:13:54;;;;;;;;;;;20.20;62.30;;;;;;5052184;28;1158;-64
2021/06/04 01:16:26;;;;;;;;;;;20.20;62.30;;;;;;5039662;28;961;-66
2021/06/04 01:18:52;;;;;;;;;;;20.20;62.30;;;;;;5052077;28;1155;-64
2021/06/04 01:21:21;;;;;;;;;;;20.20;62.30;;;;;;5053992;28;1346;-65
2021/06/04 01:23:50;;;;;;;;;;;20.20;62.30;;;;;;5051624;28;1447;-64
2021/06/04 01:26:32;;;;;;;;;;;20.20;62.30;;;;;;5053888;28;908;-66
2021/06/04 01:28:59;;;;;;;;;;;20.20;62.30;;;;;;5052242;28;1975;-65
2021/06/04 01:31:26;;;;;;;;;;;20.20;62.30;;;;;;5052710;28;1231;-65
2021/06/04 01:33:57;;;;;;;;;;;20.20;62.30;;;;;;5052021;28;1127;-64
2021/06/04 01:36:27;;;;;;;;;;;20.20;62.40;;;;;;5053480;28;1118;-65
2021/06/04 01:38:52;;;;;;;;;;;20.20;62.30;;;;;;5051820;28;1075;-64
2021/06/04 01:41:20;;;;;;;;;;;20.20;62.40;;;;;;5052027;28;1378;-64
2021/06/04 01:43:46;;;;;;;;;;;20.20;62.40;;;;;;5051749;28;1111;-65
2021/06/04 01:46:14;;;;;;;;;;;20.20;62.40;;;;;;5053351;28;1067;-64
2021/06/04 01:48:40;;;;;;;;;;;20.20;62.40;;;;;;5052182;28;1902;-65
2021/06/04 01:51:06;;;;;;;;;;;20.20;62.40;;;;;;5034889;28;1318;-64
2021/06/04 01:53:35;;;;;;;;;;;20.20;62.40;;;;;;5051939;28;1082;-65
2021/06/04 01:56:02;;;;;;;;;;;20.20;62.40;;;;;;5051605;28;1127;-65
2021/06/04 01:58:29;;;;;;;;;;;20.20;62.40;;;;;;5052379;28;1123;-64
2021/06/04 02:00:56;;;;;;;;;;;20.20;62.40;;;;;;5051594;28;1227;-64
2021/06/04 02:03:21;;;;;;;;;;;20.20;62.40;;;;;;5051662;28;1147;-64
2021/06/04 02:05:47;;;;;;;;;;;20.20;62.40;;;;;;5051871;28;1079;-66
2021/06/04 02:08:20;;;;;;;;;;;20.20;62.40;;;;;;5052705;28;1897;-65
2021/06/04 02:10:46;;;;;;;;;;;20.20;62.40;;;;;;5035058;28;1318;-65
2021/06/04 02:13:12;;;;;;;;;;;20.20;62.50;;;;;;5051225;28;1135;-65
2021/06/04 02:15:39;;;;;;;;;;;20.20;62.50;;;;;;5038014;28;1261;-65
2021/06/04 02:18:11;;;;;;;;;;;20.20;62.50;;;;;;5051679;28;1159;-65
2021/06/04 02:20:53;;;;;;;;;;;20.20;62.50;;;;;;5051080;28;1297;-65
2021/06/04 02:23:27;;;;;;;;;;;20.20;62.50;;;;;;5051622;28;1060;-65
2021/06/04 02:26:01;;;;;;;;;;;20.20;62.50;;;;;;5052626;28;1286;-64
2021/06/04 02:28:31;;;;;;;;;;;20.20;62.50;;;;;;5051329;28;1969;-65
2021/06/04 02:30:59;;;;;;;;;;;20.20;62.50;;;;;;5051985;28;1304;-65
2021/06/04 02:33:36;;;;;;;;;;;20.20;62.50;;;;;;5050923;28;1107;-65
2021/06/04 02:36:04;;;;;;;;;;;20.20;62.50;;;;;;5051222;28;1056;-65
2021/06/04 02:38:40;;;;;;;;;;;20.20;62.50;;;;;;5051017;28;1131;-64
2021/06/04 02:41:11;;;;;;;;;;;20.20;62.50;;;;;;5051411;28;1247;-67
2021/06/04 02:43:38;;;;;;;;;;;20.20;62.50;;;;;;5052159;28;1118;-64
2021/06/04 02:46:24;;;;;;;;;;;20.20;62.60;;;;;;5051238;28;1044;-66
2021/06/04 02:48:50;;;;;;;;;;;20.20;62.50;;;;;;5038020;28;1956;-64
2021/06/04 02:51:17;;;;;;;;;;;20.20;62.60;;;;;;5050959;28;1367;-66
2021/06/04 02:53:51;;;;;;;;;;;20.20;62.60;;;;;;5050164;28;1134;-65
2021/06/04 02:56:17;;;;;;;;;;;20.20;62.60;;;;;;5051189;28;1060;-64
2021/06/04 02:58:43;;;;;;;;;;;20.20;62.60;;;;;;5052045;28;1075;-66
2021/06/04 03:01:09;;;;;;;;;;;20.20;62.60;;;;;;5052450;28;1269;-64
2021/06/04 03:03:35;;;;;;;;;;;20.20;62.60;;;;;;5049992;28;1084;-65
2021/06/04 03:06:00;;;;;;;;;;;20.20;62.60;;;;;;5052485;28;1096;-64
2021/06/04 03:08:27;;;;;;;;;;;20.20;62.60;;;;;;5050895;28;1915;-65
2021/06/04 03:10:52;;;;;;;;;;;20.20;62.60;;;;;;5051927;28;1345;-65
2021/06/04 03:13:19;;;;;;;;;;;20.20;62.60;;;;;;5050147;28;1029;-64
2021/06/04 03:15:49;;;;;;;;;;;20.20;62.60;;;;;;5050881;28;1213;-64
2021/06/04 03:18:16;;;;;;;;;;;20.20;62.70;;;;;;5053134;28;1134;-65
2021/06/04 03:20:43;;;;;;;;;;;20.20;62.60;;;;;;5054706;28;1268;-65
2021/06/04 03:23:09;;;;;;;;;;;20.20;62.70;;;;;;5054343;28;1087;-64
2021/06/04 03:25:36;;;;;;;;;;;20.20;62.60;;;;;;5055310;28;1020;-64
2021/06/04 03:28:01;;;;;;;;;;;20.20;62.70;;;;;;5054729;28;1955;-66
2021/06/04 03:30:28;;;;;;;;;;;20.20;62.70;;;;;;5055521;28;1366;-65
2021/06/04 03:32:53;;;;;;;;;;;20.20;62.70;;;;;;5055591;28;1150;-64
2021/06/04 03:35:19;;;;;;;;;;;20.20;62.70;;;;;;5054449;28;1115;-64
2021/06/04 03:37:44;;;;;;;;;;;20.20;62.70;;;;;;5054100;28;1045;-64
2021/06/04 03:40:11;;;;;;;;;;;20.20;62.70;;;;;;5055653;28;1310;-66
2021/06/04 03:42:36;;;;;;;;;;;20.20;62.80;;;;;;5055809;28;1161;-65
2021/06/04 03:45:02;;;;;;;;;;;20.20;62.70;;;;;;5054880;28;1138;-64
2021/06/04 03:47:28;;;;;;;;;;;20.20;62.70;;;;;;5054558;28;1949;-64
2021/06/04 03:49:53;;;;;;;;;;;20.20;62.70;;;;;;5055306;28;1244;-65
2021/06/04 03:52:20;;;;;;;;;;;20.20;63.50;;;;;;5054445;28;1056;-65
2021/06/04 03:54:46;;;;;;;;;;;20.20;62.70;;;;;;5036929;28;1419;-64
2021/06/04 03:57:12;;;;;;;;;;;20.20;62.70;;;;;;5054626;28;1067;-64
2021/06/04 03:59:38;;;;;;;;;;;20.20;62.70;;;;;;5055544;28;1111;-64
2021/06/04 04:02:05;;;;;;;;;;;20.20;62.80;;;;;;5034184;28;1337;-64
2021/06/04 04:04:30;;;;;;;;;;;20.20;62.80;;;;;;5049504;28;1143;-65
2021/06/04 04:06:56;;;;;;;;;;;20.20;62.80;;;;;;5054901;28;2018;-65
2021/06/04 04:09:21;;;;;;;;;;;20.20;62.80;;;;;;5054054;28;1123;-65
2021/06/04 04:11:47;;;;;;;;;;;20.20;62.80;;;;;;5055217;28;1185;-64
2021/06/04 04:14:12;;;;;;;;;;;20.20;62.80;;;;;;5052207;28;1055;-65
2021/06/04 04:16:38;;;;;;;;;;;20.20;62.80;;;;;;5043111;28;1076;-65
2021/06/04 04:19:03;;;;;;;;;;;20.20;62.80;;;;;;5055088;28;1075;-66
2021/06/04 04:21:29;;;;;;;;;;;20.20;62.80;;;;;;5054542;28;1223;-65
2021/06/04 04:23:55;;;;;;;;;;;20.20;62.90;;;;;;5054111;28;1233;-65
2021/06/04 04:26:23;;;;;;;;;;;20.20;62.90;;;;;;5053734;28;1127;-65
2021/06/04 04:28:49;;;;;;;;;;;20.20;62.90;;;;;;5052188;28;1963;-65
2021/06/04 04:31:15;;;;;;;;;;;20.20;62.90;;;;;;5053097;28;1281;-65
2021/06/04 04:33:40;;;;;;;;;;;20.20;62.90;;;;;;5054368;28;1138;-65
2021/06/04 04:36:06;;;;;;;;;;;20.20;62.90;;;;;;5053229;28;1112;-64
2021/06/04 04:38:32;;;;;;;;;;;20.20;62.90;;;;;;5053223;28;1158;-65
2021/06/04 04:41:02;;;;;;;;;;;20.20;62.90;;;;;;5053452;28;1225;-65
2021/06/04 04:43:28;;;;;;;;;;;20.20;62.90;;;;;;5053367;28;1084;-64
2021/06/04 04:45:53;;;;;;;;;;;20.20;62.90;;;;;;5053478;28;1141;-65
2021/06/04 04:48:19;;;;;;;;;;;20.10;62.90;;;;;;5052907;28;1901;-65
2021/06/04 04:50:44;;;;;;;;;;;20.10;62.90;;;;;;5052845;28;1337;-64
2021/06/04 04:53:10;;;;;;;;;;;20.20;62.90;;;;;;5052523;28;1151;-65
2021/06/04 04:55:36;;;;;;;;;;;20.10;62.90;;;;;;5054698;28;1098;-65
2021/06/04 04:58:01;;;;;;;;;;;20.10;62.90;;;;;;5052782;28;1143;-65
2021/06/04 05:00:27;;;;;;;;;;;20.10;62.90;;;;;;5053904;28;1332;-65
2021/06/04 05:02:52;;;;;;;;;;;20.10;62.90;;;;;;5052394;28;1154;-65
2021/06/04 05:05:18;;;;;;;;;;;20.20;62.90;;;;;;5036413;28;1335;-64
2021/06/04 05:07:44;;;;;;;;;;;20.20;62.90;;;;;;5053815;28;1922;-64
2021/06/04 05:10:09;;;;;;;;;;;20.20;63.00;;;;;;5052942;28;1284;-65
2021/06/04 05:12:36;;;;;;;;;;;20.20;63.00;;;;;;5053772;28;1076;-64
2021/06/04 05:15:02;;;;;;;;;;;20.10;63.00;;;;;;5043470;28;1245;-64
2021/06/04 05:17:28;;;;;;;;;;;20.10;62.90;;;;;;5048368;28;1073;-65
2021/06/04 05:19:54;;;;;;;;;;;20.10;63.00;;;;;;5053325;28;1299;-64
2021/06/04 05:22:19;;;;;;;;;;;20.20;63.00;;;;;;5053811;28;1110;-64
2021/06/04 05:24:45;;;;;;;;;;;20.10;63.00;;;;;;5053350;28;1063;-65
2021/06/04 05:27:11;;;;;;;;;;;20.10;63.00;;;;;;5053310;28;1941;-65
2021/06/04 05:29:36;;;;;;;;;;;20.10;63.00;;;;;;5053914;28;1062;-66
2021/06/04 05:32:02;;;;;;;;;;;20.10;63.00;;;;;;5053432;28;1166;-64
2021/06/04 05:34:27;;;;;;;;;;;20.10;63.00;;;;;;5051711;28;1056;-65
2021/06/04 05:36:53;;;;;;;;;;;20.10;63.00;;;;;;5053584;28;1149;-64
2021/06/04 05:39:20;;;;;;;;;;;20.10;63.00;;;;;;5052273;28;1063;-64
2021/06/04 05:41:47;;;;;;;;;;;20.10;63.00;;;;;;5052140;28;1188;-64
2021/06/04 05:44:14;;;;;;;;;;;20.20;63.00;;;;;;5051572;28;1079;-64
2021/06/04 05:46:41;;;;;;;;;;;20.10;63.00;;;;;;5053244;28;1111;-65
2021/06/04 05:49:06;;;;;;;;;;;20.10;63.00;;;;;;5053308;28;1966;-64
2021/06/04 05:51:32;;;;;;;;;;;20.10;63.00;;;;;;5053397;28;1370;-65
2021/06/04 05:53:57;;;;;;;;;;;20.10;63.00;;;;;;5051698;28;1063;-65
2021/06/04 05:56:23;;;;;;;;;;;20.10;63.00;;;;;;5053307;28;1098;-65
2021/06/04 05:58:48;;;;;;;;;;;20.10;63.00;;;;;;5051926;28;1080;-65
2021/06/04 06:01:19;;;;;;;;;;;20.10;63.10;;;;;;5061175;22;3750;-72
2021/06/04 06:03:44;;;;;;;;;;;20.10;63.10;;;;;;5050126;28;941;-73
2021/06/04 06:06:11;;;;;;;;;;;20.10;63.20;;;;;;5052837;28;1083;-73
2021/06/04 06:08:36;;;;;;;;;;;20.10;63.00;;;;;;5052679;28;1969;-73
2021/06/04 06:11:02;;;;;;;;;;;20.10;62.90;;;;;;5052991;28;1284;-73
2021/06/04 06:13:28;;;;;;;;;;;20.10;62.80;;;;;;5031226;28;1607;-75
2021/06/04 06:15:54;;;;;;;;;;;20.10;62.90;;;;;;5005810;28;1897;-73
2021/06/04 06:18:21;;;;;;;;;;;20.10;62.90;;;;;;5042495;28;1007;-72
2021/06/04 06:20:46;;;;;;;;;;;20.10;62.90;;;;;;5043748;28;1295;-72
2021/06/04 06:23:13;;;;;;;;;;;20.10;62.80;;;;;;5050338;28;1051;-71
2021/06/04 06:25:39;;;;;;;;;;;20.10;62.70;;;;;;5034822;28;1026;-72
2021/06/04 06:28:05;;;;;;;;;;;20.10;62.70;;;;;;5029986;28;1894;-72
2021/06/04 06:30:31;;;;;;;;;;;20.10;62.60;;;;;;5031738;28;1290;-70
2021/06/04 06:32:56;;;;;;;;;;;20.10;62.50;;;;;;5030572;28;1069;-71
2021/06/04 06:35:24;;;;;;;;;;;20.20;62.60;;;;;;5030822;28;1079;-71
2021/06/04 06:37:49;;;;;;;;;;;20.20;62.60;;;;;;5010639;28;1706;-70
2021/06/04 06:40:15;;;;;;;;;;;20.20;62.50;;;;;;5027646;28;1224;-71
2021/06/04 06:42:40;;;;;;;;;;;20.20;62.50;;;;;;5031847;28;1075;-71
2021/06/04 06:45:06;;;;;;;;;;;20.20;62.50;;;;;;5031713;28;1035;-73
2021/06/04 06:47:32;;;;;;;;;;;20.20;62.50;;;;;;5032560;28;1918;-73
2021/06/04 06:49:57;;;;;;;;;;;20.20;62.50;;;;;;5030024;28;1466;-73
2021/06/04 06:52:22;;;;;;;;;;;20.20;62.50;;;;;;5032108;28;1301;-74
2021/06/04 06:54:48;;;;;;;;;;;20.20;62.50;;;;;;5030207;28;1234;-74
2021/06/04 06:57:13;;;;;;;;;;;20.20;62.50;;;;;;5031255;28;1116;-74
2021/06/04 06:59:39;;;;;;;;;;;20.20;62.50;;;;;;5013298;28;1108;-74
2021/06/04 07:02:05;;;;;;;;;;;20.20;62.50;;;;;;5029621;28;1624;-74
2021/06/04 07:04:31;;;;;;;;;;;20.20;62.50;;;;;;5021126;28;2151;-74
2021/06/04 07:06:56;;;;;;;;;;;20.20;63.20;;;;;;5027892;28;1081;-74
2021/06/04 07:09:24;;;;;;;;;;;20.30;63.70;;;;;;5025620;28;1969;-72
2021/06/04 07:11:50;;;;;;;;;;;20.30;63.70;;;;;;5029490;28;1319;-73
2021/06/04 07:14:17;;;;;;;;;;;20.30;63.70;;;;;;5026395;28;1200;-73
2021/06/04 07:16:42;;;;;;;;;;;20.40;63.50;;;;;;5020071;28;1172;-71
2021/06/04 07:19:07;;;;;;;;;;;20.40;63.60;;;;;;5035031;28;1162;-74
2021/06/04 07:21:34;;;;;;;;;;;20.40;63.60;;;;;;5035021;28;1471;-74
2021/06/04 07:24:00;;;;;;;;;;;20.40;63.60;;;;;;5050636;28;1457;-74
2021/06/04 07:26:26;;;;;;;;;;;20.40;63.70;;;;;;5052717;28;1432;-74
2021/06/04 07:28:52;;;;;;;;;;;20.40;63.70;;;;;;5047562;28;1898;-73
2021/06/04 07:31:18;;;;;;;;;;;20.50;63.80;;;;;;5052076;28;1426;-73
2021/06/04 07:33:45;;;;;;;;;;;20.40;63.80;;;;;;5051316;28;1748;-73
2021/06/04 07:36:12;;;;;;;;;;;20.50;63.80;;;;;;5051684;28;1375;-73
2021/06/04 07:38:37;;;;;;;;;;;20.50;63.80;;;;;;5050959;28;1370;-73
2021/06/04 07:41:03;;;;;;;;;;;20.50;63.90;;;;;;5052000;28;1424;-73
2021/06/04 07:43:29;;;;;;;;;;;20.50;64.00;;;;;;5049995;28;1677;-73
2021/06/04 07:45:55;;;;;;;;;;;20.50;64.10;;;;;;5050697;28;1334;-73
2021/06/04 07:48:20;;;;;;;;;;;20.50;64.20;;;;;;5050401;28;1957;-74
2021/06/04 07:50:46;;;;;;;;;;;20.50;64.30;;;;;;5051996;28;1649;-73
2021/06/04 07:53:13;;;;;;;;;;;20.50;64.30;;;;;;5050402;28;1433;-73
2021/06/04 07:55:39;;;;;;;;;;;20.50;64.30;;;;;;5046790;28;1842;-74
2021/06/04 07:58:05;;;;;;;;;;;20.50;64.30;;;;;;5047902;28;1264;-74
2021/06/04 08:00:31;;;;;;;;;;;20.50;64.40;;;;;;5034979;28;1904;-74
2021/06/04 08:02:56;;;;;;;;;;;20.50;64.40;;;;;;5022286;28;1416;-73
2021/06/04 08:05:22;;;;;;;;;;;20.40;64.40;;;;;;5034543;28;1397;-74
2021/06/04 08:07:47;;;;;;;;;;;20.50;64.50;;;;;;5034252;28;1906;-74
2021/06/04 08:10:13;;;;;;;;;;;20.50;64.50;;;;;;5034993;28;1430;-73
2021/06/04 08:12:38;;;;;;;;;;;20.50;64.70;;;;;;5048817;28;1526;-74
2021/06/04 08:15:08;;;;;;;;;;;20.50;64.90;;;;;;5045766;28;1251;-73
2021/06/04 08:17:34;;;;;;;;;;;20.50;64.90;;;;;;5033334;28;1731;-73
2021/06/04 08:19:59;;;;;;;;;;;20.50;65.00;;;;;;5053661;28;1382;-74
2021/06/04 08:22:24;;;;;;;;;;;20.50;64.90;;;;;;5034600;28;1719;-73
2021/06/04 08:24:50;;;;;;;;;;;20.50;64.90;;;;;;5034850;28;1662;-73
2021/06/04 08:27:17;;;;;;;;;;;20.50;64.80;;;;;;5035065;28;1989;-73
2021/06/04 08:29:45;;;;;;;;;;;20.50;64.80;;;;;;5034538;28;1285;-73
2021/06/04 08:32:11;;;;;;;;;;;20.50;65.00;;;;;;5033605;28;1711;-74
2021/06/04 08:34:37;;;;;;;;;;;20.50;65.70;;;;;;5033384;28;1028;-74
2021/06/04 08:37:04;;;;;;;;;;;20.50;64.90;;;;;;5034338;28;1460;-73
2021/06/04 08:39:32;;;;;;;;;;;20.50;65.00;;;;;;5034169;28;1831;-73
2021/06/04 08:42:16;;;;;;;;;;;20.50;65.10;;;;;;5034167;28;1657;-73
2021/06/04 08:44:47;;;;;;;;;;;20.50;65.10;;;;;;5036807;28;1666;-74
2021/06/04 08:47:19;;;;;;;;;;;20.50;65.30;;;;;;5053904;28;1894;-73
2021/06/04 08:49:54;;;;;;;;;;;20.50;65.40;;;;;;5055299;28;1508;-73
2021/06/04 08:52:22;;;;;;;;;;;20.50;65.40;;;;;;5037264;28;1616;-74
2021/06/04 08:54:52;;;;;;;;;;;20.50;65.40;;;;;;5036965;28;1666;-73
2021/06/04 08:57:29;;;;;;;;;;;20.60;66.20;;;;;;5054081;28;1667;-73
2021/06/04 08:59:54;;;;;;;;;;;20.60;65.50;;;;;;5054858;28;1738;-74
2021/06/04 09:02:22;;;;;;;;;;;20.60;65.40;;;;;;5053121;28;1644;-74
2021/06/04 09:04:55;;;;;;;;;;;20.50;65.40;;;;;;5035797;28;1509;-76
2021/06/04 09:07:28;;;;;;;;;;;20.50;65.40;;;;;;5040666;28;1910;-76
2021/06/04 09:10:02;;;;;;;;;;;20.60;65.40;;;;;;5042013;28;719;-77
2021/06/04 09:12:54;;;;;;;;;;;20.60;65.40;;;;;;5038433;28;1432;-73
2021/06/04 09:15:30;;;;;;;;;;;20.60;65.50;;;;;;5017402;28;1758;-73
2021/06/04 09:18:04;;;;;;;;;;;20.50;65.40;;;;;;5033946;28;1512;-73
2021/06/04 09:20:47;;;;;;;;;;;20.60;65.50;;;;;;5030266;28;1489;-72
2021/06/04 09:23:14;;;;;;;;;;;20.60;65.60;;;;;;5033121;28;1156;-73
2021/06/04 09:25:39;;;;;;;;;;;20.60;65.60;;;;;;5023555;28;1424;-73
2021/06/04 09:28:11;;;;;;;;;;;20.60;65.70;;;;;;5053066;28;1947;-73
2021/06/04 09:30:37;;;;;;;;;;;20.60;65.70;;;;;;5054371;28;1404;-73
2021/06/04 09:33:07;;;;;;;;;;;20.60;65.70;;;;;;5053630;28;1454;-73
2021/06/04 09:35:33;;;;;;;;;;;20.60;65.80;;;;;;5036190;28;1656;-73
2021/06/04 09:38:18;;;;;;;;;;;20.60;65.80;;;;;;5053085;28;1630;-73
2021/06/04 09:40:43;;;;;;;;;;;20.60;65.80;;;;;;5053448;28;1436;-73
2021/06/04 09:43:14;;;;;;;;;;;20.60;65.80;;;;;;5035454;28;1720;-73
2021/06/04 09:45:42;;;;;;;;;;;20.60;65.80;;;;;;5036248;28;1660;-73
2021/06/04 09:48:09;;;;;;;;;;;20.60;65.90;;;;;;5052574;28;1953;-73
2021/06/04 09:50:39;;;;;;;;;;;20.60;65.90;;;;;;5052739;28;1244;-73
2021/06/04 09:53:07;;;;;;;;;;;20.60;65.80;;;;;;5052003;28;1380;-73
2021/06/04 09:55:33;;;;;;;;;;;20.60;65.90;;;;;;5053000;28;1852;-73
2021/06/04 09:58:14;;;;;;;;;;;20.60;65.90;;;;;;5052031;28;1695;-73
2021/06/04 10:00:45;;;;;;;;;;;20.60;65.80;;;;;;5053896;28;1419;-73
2021/06/04 10:03:20;;;;;;;;;;;20.60;65.90;;;;;;5053255;28;1447;-73
2021/06/04 10:05:45;;;;;;;;;;;20.60;65.80;;;;;;5053941;28;1342;-73
2021/06/04 10:08:20;;;;;;;;;;;20.60;66.00;;;;;;5035443;28;1903;-73
2021/06/04 10:10:45;;;;;;;;;;;20.60;66.00;;;;;;5052703;28;1409;-73
2021/06/04 10:13:12;;;;;;;;;;;20.60;66.00;;;;;;5051963;28;1597;-74
2021/06/04 10:15:39;;;;;;;;;;;20.60;66.00;;;;;;5038130;28;1272;-74
2021/06/04 10:18:23;;;;;;;;;;;20.60;66.00;;;;;;5038488;28;1281;-75
2021/06/04 10:20:49;;;;;;;;;;;20.60;66.00;;;;;;5031245;28;1258;-73
2021/06/04 10:23:21;;;;;;;;;;;20.60;66.20;;;;;;5050791;28;1391;-74
2021/06/04 10:25:50;;;;;;;;;;;20.60;66.10;;;;;;5037600;28;1296;-74
2021/06/04 10:28:26;;;;;;;;;;;20.60;66.10;;;;;;5052683;28;1894;-74
2021/06/04 10:30:51;;;;;;;;;;;20.60;66.10;;;;;;5051794;28;1672;-74
2021/06/04 10:33:20;;;;;;;;;;;20.60;66.10;;;;;;5033834;28;1727;-74
2021/06/04 10:35:47;;;;;;;;;;;20.60;66.10;;;;;;5052757;28;1370;-74
2021/06/04 10:38:29;;;;;;;;;;;20.60;66.20;;;;;;5051315;28;1615;-73
2021/06/04 10:40:56;;;;;;;;;;;20.60;66.30;;;;;;5034896;28;2464;-74
2021/06/04 10:43:33;;;;;;;;;;;20.60;66.70;;;;;;5034158;28;1355;-74
2021/06/04 10:46:04;;;;;;;;;;;20.60;66.80;;;;;;5051302;28;1695;-74
2021/06/04 10:48:39;;;;;;;;;;;20.60;66.70;;;;;;5051287;28;1959;-73
2021/06/04 10:51:04;;;;;;;;;;;20.60;66.80;;;;;;5038865;28;1436;-73
2021/06/04 10:53:42;;;;;;;;;;;20.60;66.80;;;;;;5051763;28;1451;-74
2021/06/04 10:56:10;;;;;;;;;;;20.60;66.70;;;;;;5052779;28;1371;-75
2021/06/04 10:58:44;;;;;;;;;;;20.60;66.70;;;;;;5052666;28;1424;-75
2021/06/04 11:01:14;;;;;;;;;;;20.60;66.70;;;;;;5050040;28;1357;-74
2021/06/04 11:04:11;;;;;;;;;;;20.60;66.90;;;;;;5032496;28;1691;-75
2021/06/04 11:06:46;;;;;;;;;;;20.60;66.70;;;;;;5010055;28;1416;-74
2021/06/04 11:09:16;;;;;;;;;;;20.60;66.80;;;;;;5034445;28;1906;-75
2021/06/04 11:12:00;;;;;;;;;;;20.60;66.50;;;;;;5035340;28;1789;-74
2021/06/04 11:14:39;;;;;;;;;;;20.60;66.50;;;;;;5049212;28;1656;-75
2021/06/04 11:17:27;;;;;;;;;;;20.60;66.70;;;;;;5027220;28;1362;-75
2021/06/04 11:20:11;;;;;;;;;;;20.60;66.70;;;;;;5036493;28;1494;-74
2021/06/04 11:22:39;;;;;;;;;;;20.60;66.80;;;;;;5030399;28;1710;-74
2021/06/04 11:25:06;;;;;;;;;;;20.60;66.80;;;;;;5031992;28;1355;-74
2021/06/04 11:27:32;;;;;;;;;;;20.60;67.00;;;;;;5031657;28;1963;-74
2021/06/04 11:29:58;;;;;;;;;;;20.60;67.10;;;;;;5031431;28;1596;-74
2021/06/04 11:32:27;;;;;;;;;;;20.60;67.10;;;;;;5030762;28;1649;-72
2021/06/04 11:34:53;;;;;;;;;;;20.60;67.10;;;;;;5029781;28;1406;-74
2021/06/04 11:37:22;;;;;;;;;;;20.60;67.10;;;;;;5030835;28;1427;-73
2021/06/04 11:39:48;;;;;;;;;;;20.60;67.10;;;;;;5035569;28;1439;-73
2021/06/04 11:42:16;;;;;;;;;;;20.60;67.10;;;;;;5035219;28;1636;-73
2021/06/04 11:44:46;;;;;;;;;;;20.60;67.10;;;;;;5034194;28;1633;-73
2021/06/04 11:47:12;;;;;;;;;;;20.60;67.10;;;;;;5034451;28;1968;-73
2021/06/04 11:49:52;;;;;;;;;;;20.60;67.10;;;;;;5036272;28;1470;-73
2021/06/04 11:52:36;;;;;;;;;;;20.60;67.10;;;;;;5036054;28;1220;-74
2021/06/04 11:55:35;;;;;;;;;;;20.60;67.10;;;;;;5034880;28;1472;-74
2021/06/04 11:58:01;;;;;;;;;;;20.60;66.90;;;;;;5032906;28;1618;-74
2021/06/04 12:00:37;;;;;;;;;;;20.60;67.10;;;;;;5035444;28;2059;-73
2021/06/04 12:03:08;;;;;;;;;;;20.60;67.10;;;;;;5032508;28;1369;-75
2021/06/04 12:05:34;;;;;;;;;;;20.60;67.00;;;;;;5032522;28;1495;-74
2021/06/04 12:08:13;;;;;;;;;;;20.60;66.50;;;;;;5051233;28;1904;-74
2021/06/04 12:10:48;;;;;;;;;;;20.70;66.00;;;;;;5055100;28;1355;-74
2021/06/04 12:13:32;;;;;;;;;;;20.60;65.80;;;;;;5054786;28;1134;-75
2021/06/04 12:16:16;;;;;;;;;;;20.60;64.90;;;;;;5038521;28;1271;-74
2021/06/04 12:18:50;;;;;;;;;;;20.60;64.90;;;;;;5041964;28;1154;-74
2021/06/04 12:21:35;;;;;;;;;;;20.60;64.80;;;;;;5042931;28;1350;-75
2021/06/04 12:24:00;;;;;;;;;;;20.60;64.80;;;;;;5033966;28;1158;-74
2021/06/04 12:26:33;;;;;;;;;;;20.60;64.70;;;;;;5034152;28;1091;-76
2021/06/04 12:28:58;;;;;;;;;;;20.60;64.70;;;;;;5032102;28;1895;-76
2021/06/04 12:31:39;;;;;;;;;;;20.60;64.60;;;;;;5033253;28;1272;-76
2021/06/04 12:34:08;;;;;;;;;;;20.60;64.60;;;;;;5034186;28;1103;-76
2021/06/04 12:36:43;;;;;;;;;;;20.60;64.50;;;;;;5035356;28;1115;-76
2021/06/04 12:39:20;;;;;;;;;;;20.60;64.40;;;;;;5034561;28;1067;-74
2021/06/04 12:41:48;;;;;;;;;;;20.60;64.20;;;;;;5034924;28;1240;-75
2021/06/04 12:44:14;;;;;;;;;;;20.60;64.20;;;;;;5034116;28;1103;-74
2021/06/04 12:46:39;;;;;;;;;;;20.60;64.80;;;;;;5033701;28;1095;-74
2021/06/04 12:49:08;;;;;;;;;;;20.60;64.00;;;;;;5034660;28;1957;-75
2021/06/04 12:51:34;;;;;;;;;;;20.60;63.80;;;;;;5032495;28;1377;-74
2021/06/04 12:54:04;;;;;;;;;;;20.60;63.70;;;;;;5032046;28;1208;-74
2021/06/04 12:56:30;;;;;;;;;;;20.60;63.70;;;;;;5033269;28;1080;-74
2021/06/04 12:58:58;;;;;;;;;;;20.60;63.70;;;;;;5033492;28;1124;-74
2021/06/04 13:01:30;;;;;;;;;;;20.70;63.50;;;;;;5033758;28;1225;-74
2021/06/04 13:04:01;;;;;;;;;;;20.60;63.50;;;;;;5032400;28;1030;-74
2021/06/04 13:06:32;;;;;;;;;;;20.60;63.20;;;;;;5032832;28;1129;-74
2021/06/04 13:08:57;;;;;;;;;;;20.70;63.30;;;;;;5033226;28;1961;-74
2021/06/04 13:11:33;;;;;;;;;;;20.70;63.20;;;;;;5012977;28;1208;-74
2021/06/04 13:13:59;;;;;;;;;;;20.60;63.20;;;;;;5041835;28;1099;-74
2021/06/04 13:16:26;;;;;;;;;;;20.70;63.40;;;;;;5037242;28;1585;-74
2021/06/04 13:18:52;;;;;;;;;;;20.60;63.30;;;;;;5029918;28;1440;-74
2021/06/04 13:21:22;;;;;;;;;;;20.60;63.40;;;;;;5034454;28;1348;-74
2021/06/04 13:23:59;;;;;;;;;;;20.60;63.30;;;;;;5038331;28;1223;-75
2021/06/04 13:26:25;;;;;;;;;;;20.60;63.40;;;;;;5028655;28;1256;-76
2021/06/04 13:28:51;;;;;;;;;;;20.60;63.40;;;;;;5040959;28;1975;-75
2021/06/04 13:31:20;;;;;;;;;;;20.60;63.40;;;;;;5042168;28;1334;-74
2021/06/04 13:33:52;;;;;;;;;;;20.60;63.40;;;;;;5048259;28;1436;-74
2021/06/04 13:36:19;;;;;;;;;;;20.60;63.40;;;;;;5030254;28;1092;-74
2021/06/04 13:38:56;;;;;;;;;;;20.60;63.40;;;;;;5032451;28;1347;-75
2021/06/04 13:41:25;;;;;;;;;;;20.60;63.30;;;;;;5032724;28;1307;-72
2021/06/04 13:43:51;;;;;;;;;;;20.60;63.30;;;;;;5031691;28;1190;-75
2021/06/04 13:46:18;;;;;;;;;;;20.60;63.20;;;;;;5033242;28;1131;-73
2021/06/04 13:49:00;;;;;;;;;;;20.60;63.00;;;;;;5029371;28;1898;-73
2021/06/04 13:51:26;;;;;;;;;;;20.60;62.70;;;;;;5044781;28;1396;-74
2021/06/04 13:53:53;;;;;;;;;;;20.60;63.00;;;;;;5050473;28;1142;-75
2021/06/04 13:56:26;;;;;;;;;;;20.60;62.80;;;;;;5051258;28;1186;-74
2021/06/04 13:59:10;;;;;;;;;;;20.60;62.70;;;;;;5050578;28;1060;-74
2021/06/04 14:01:44;;;;;;;;;;;20.60;63.00;;;;;;5051919;28;1382;-74
2021/06/04 14:04:15;;;;;;;;;;;20.60;63.00;;;;;;5050535;28;1126;-74
2021/06/04 14:06:47;;;;;;;;;;;20.60;63.00;;;;;;5050631;28;1254;-74
2021/06/04 14:09:13;;;;;;;;;;;20.60;62.90;;;;;;5050002;28;1963;-74
2021/06/04 14:12:08;;;;;;;;;;;20.60;62.80;;;;;;5052621;28;1221;-75
2021/06/04 14:14:35;;;;;;;;;;;20.60;63.60;;;;;;5028689;28;1192;-74
2021/06/04 14:17:00;;;;;;;;;;;20.60;62.90;;;;;;5026943;28;1072;-74
2021/06/04 14:19:36;;;;;;;;;;;20.60;62.80;;;;;;5048748;28;1280;-74
2021/06/04 14:22:05;;;;;;;;;;;20.60;62.90;;;;;;5031795;28;1292;-74
2021/06/04 14:24:35;;;;;;;;;;;20.60;62.90;;;;;;5023456;28;1111;-72
2021/06/04 14:27:01;;;;;;;;;;;20.60;62.80;;;;;;5021614;28;1180;-74
2021/06/04 14:29:30;;;;;;;;;;;20.60;62.90;;;;;;5051749;28;1898;-74
2021/06/04 14:31:55;;;;;;;;;;;20.60;62.90;;;;;;5050172;28;1315;-74
2021/06/04 14:34:27;;;;;;;;;;;20.60;63.00;;;;;;5050814;28;1117;-74
2021/06/04 14:36:53;;;;;;;;;;;20.60;63.10;;;;;;5049569;28;1091;-74
2021/06/04 14:39:31;;;;;;;;;;;20.50;62.90;;;;;;5042307;28;1572;-73